sensor_id;sensor_type;location;lat;lon;timestamp;P1;durP1;ratioP1;P2;durP2;ratioP2
78169;SDS011;67412;49.892;14.490;2023-04-10T00:00:49;18.27;;;7.70;;
78169;SDS011;67412;49.892;14.490;2023-04-10T00:03:21;18.73;;;7.95;;
78169;SDS011;67412;49.892;14.490;2023-04-10T00:05:47;20.98;;;8.52;;
78169;SDS011;67412;49.892;14.490;2023-04-10T00:08:12;19.35;;;7.82;;
78169;SDS011;67412;49.892;14.490;2023-04-10T00:10:37;20.83;;;7.65;;
78169;SDS011;67412;49.892;14.490;2023-04-10T00:13:03;18.58;;;7.40;;
78169;SDS011;67412;49.892;14.490;2023-04-10T00:15:29;17.23;;;6.97;;
78169;SDS011;67412;49.892;14.490;2023-04-10T00:17:54;15.93;;;7.05;;
78169;SDS011;67412;49.892;14.490;2023-04-10T00:20:20;18.85;;;7.82;;
78169;SDS011;67412;49.892;14.490;2023-04-10T00:22:46;17.20;;;7.50;;
78169;SDS011;67412;49.892;14.490;2023-04-10T00:25:12;17.38;;;7.63;;
78169;SDS011;67412;49.892;14.490;2023-04-10T00:27:37;16.60;;;7.15;;
78169;SDS011;67412;49.892;14.490;2023-04-10T00:30:03;13.93;;;6.47;;
78169;SDS011;67412;49.892;14.490;2023-04-10T00:32:29;15.98;;;6.75;;
78169;SDS011;67412;49.892;14.490;2023-04-10T00:34:54;17.80;;;7.63;;
78169;SDS011;67412;49.892;14.490;2023-04-10T00:37:19;15.05;;;7.15;;
78169;SDS011;67412;49.892;14.490;2023-04-10T00:39:45;18.40;;;7.60;;
78169;SDS011;67412;49.892;14.490;2023-04-10T00:42:10;18.75;;;7.85;;
78169;SDS011;67412;49.892;14.490;2023-04-10T00:44:36;17.52;;;7.32;;
78169;SDS011;67412;49.892;14.490;2023-04-10T00:47:04;18.60;;;7.90;;
78169;SDS011;67412;49.892;14.490;2023-04-10T00:49:31;19.42;;;8.57;;
78169;SDS011;67412;49.892;14.490;2023-04-10T00:51:57;16.83;;;7.40;;
78169;SDS011;67412;49.892;14.490;2023-04-10T00:54:22;19.52;;;8.07;;
78169;SDS011;67412;49.892;14.490;2023-04-10T00:56:48;17.13;;;6.80;;
78169;SDS011;67412;49.892;14.490;2023-04-10T00:59:14;20.48;;;8.65;;
78169;SDS011;67412;49.892;14.490;2023-04-10T01:01:39;19.20;;;8.25;;
78169;SDS011;67412;49.892;14.490;2023-04-10T01:04:05;18.15;;;8.32;;
78169;SDS011;67412;49.892;14.490;2023-04-10T01:09:28;22.42;;;9.13;;
78169;SDS011;67412;49.892;14.490;2023-04-10T01:12:07;20.55;;;9.20;;
78169;SDS011;67412;49.892;14.490;2023-04-10T01:20:00;22.35;;;9.65;;
78169;SDS011;67412;49.892;14.490;2023-04-10T01:22:48;23.35;;;9.80;;
78169;SDS011;67412;49.892;14.490;2023-04-10T01:28:06;23.15;;;10.13;;
78169;SDS011;67412;49.892;14.490;2023-04-10T01:30:46;21.92;;;10.05;;
78169;SDS011;67412;49.892;14.490;2023-04-10T01:33:15;23.88;;;9.70;;
78169;SDS011;67412;49.892;14.490;2023-04-10T01:35:43;25.75;;;9.88;;
78169;SDS011;67412;49.892;14.490;2023-04-10T01:38:15;22.25;;;8.68;;
78169;SDS011;67412;49.892;14.490;2023-04-10T01:40:42;20.98;;;9.55;;
78169;SDS011;67412;49.892;14.490;2023-04-10T01:43:14;23.02;;;8.63;;
78169;SDS011;67412;49.892;14.490;2023-04-10T01:45:40;21.75;;;9.85;;
78169;SDS011;67412;49.892;14.490;2023-04-10T01:48:07;23.05;;;10.10;;
78169;SDS011;67412;49.892;14.490;2023-04-10T01:50:34;21.48;;;9.20;;
78169;SDS011;67412;49.892;14.490;2023-04-10T01:53:00;20.77;;;8.70;;
78169;SDS011;67412;49.892;14.490;2023-04-10T01:55:27;22.85;;;9.82;;
78169;SDS011;67412;49.892;14.490;2023-04-10T01:57:54;20.92;;;8.27;;
78169;SDS011;67412;49.892;14.490;2023-04-10T02:00:20;21.48;;;8.98;;
78169;SDS011;67412;49.892;14.490;2023-04-10T02:02:46;22.88;;;8.52;;
78169;SDS011;67412;49.892;14.490;2023-04-10T02:05:12;21.63;;;8.68;;
78169;SDS011;67412;49.892;14.490;2023-04-10T02:10:23;21.73;;;8.95;;
78169;SDS011;67412;49.892;14.490;2023-04-10T02:13:10;20.27;;;8.57;;
78169;SDS011;67412;49.892;14.490;2023-04-10T02:15:38;20.88;;;9.55;;
78169;SDS011;67412;49.892;14.490;2023-04-10T02:18:07;24.83;;;10.13;;
78169;SDS011;67412;49.892;14.490;2023-04-10T02:20:35;22.17;;;9.35;;
78169;SDS011;67412;49.892;14.490;2023-04-10T02:23:01;22.65;;;9.82;;
78169;SDS011;67412;49.892;14.490;2023-04-10T02:25:31;24.33;;;10.18;;
78169;SDS011;67412;49.892;14.490;2023-04-10T02:27:57;19.98;;;8.90;;
78169;SDS011;67412;49.892;14.490;2023-04-10T02:30:22;19.98;;;8.50;;
78169;SDS011;67412;49.892;14.490;2023-04-10T02:32:48;26.63;;;9.60;;
78169;SDS011;67412;49.892;14.490;2023-04-10T02:35:14;24.83;;;10.35;;
78169;SDS011;67412;49.892;14.490;2023-04-10T02:37:39;25.02;;;10.35;;
78169;SDS011;67412;49.892;14.490;2023-04-10T02:40:06;27.55;;;11.20;;
78169;SDS011;67412;49.892;14.490;2023-04-10T02:42:32;31.48;;;10.93;;
78169;SDS011;67412;49.892;14.490;2023-04-10T02:44:57;21.58;;;9.50;;
78169;SDS011;67412;49.892;14.490;2023-04-10T02:47:23;23.48;;;9.82;;
78169;SDS011;67412;49.892;14.490;2023-04-10T02:49:48;22.63;;;9.73;;
78169;SDS011;67412;49.892;14.490;2023-04-10T02:52:13;22.70;;;9.75;;
78169;SDS011;67412;49.892;14.490;2023-04-10T02:54:39;25.70;;;10.70;;
78169;SDS011;67412;49.892;14.490;2023-04-10T02:57:04;24.58;;;10.55;;
78169;SDS011;67412;49.892;14.490;2023-04-10T02:59:30;24.52;;;10.13;;
78169;SDS011;67412;49.892;14.490;2023-04-10T03:01:55;27.35;;;11.77;;
78169;SDS011;67412;49.892;14.490;2023-04-10T03:04:21;23.98;;;11.45;;
78169;SDS011;67412;49.892;14.490;2023-04-10T03:06:46;24.65;;;9.95;;
78169;SDS011;67412;49.892;14.490;2023-04-10T03:09:11;22.17;;;10.00;;
78169;SDS011;67412;49.892;14.490;2023-04-10T03:11:37;27.55;;;11.43;;
78169;SDS011;67412;49.892;14.490;2023-04-10T03:14:03;21.77;;;10.10;;
78169;SDS011;67412;49.892;14.490;2023-04-10T03:16:28;20.35;;;9.02;;
78169;SDS011;67412;49.892;14.490;2023-04-10T03:18:54;23.80;;;10.00;;
78169;SDS011;67412;49.892;14.490;2023-04-10T03:21:20;23.73;;;10.18;;
78169;SDS011;67412;49.892;14.490;2023-04-10T03:23:46;24.67;;;9.98;;
78169;SDS011;67412;49.892;14.490;2023-04-10T03:26:11;24.25;;;9.73;;
78169;SDS011;67412;49.892;14.490;2023-04-10T03:28:36;24.95;;;11.05;;
78169;SDS011;67412;49.892;14.490;2023-04-10T03:31:02;22.52;;;10.25;;
78169;SDS011;67412;49.892;14.490;2023-04-10T03:33:28;27.27;;;10.52;;
78169;SDS011;67412;49.892;14.490;2023-04-10T03:35:54;26.05;;;11.30;;
78169;SDS011;67412;49.892;14.490;2023-04-10T03:38:21;24.65;;;10.10;;
78169;SDS011;67412;49.892;14.490;2023-04-10T03:40:46;23.77;;;10.07;;
78169;SDS011;67412;49.892;14.490;2023-04-10T03:43:12;23.90;;;10.18;;
78169;SDS011;67412;49.892;14.490;2023-04-10T03:45:37;25.40;;;11.10;;
78169;SDS011;67412;49.892;14.490;2023-04-10T03:48:02;22.20;;;10.18;;
78169;SDS011;67412;49.892;14.490;2023-04-10T03:50:28;26.20;;;11.60;;
78169;SDS011;67412;49.892;14.490;2023-04-10T03:52:53;24.75;;;10.10;;
78169;SDS011;67412;49.892;14.490;2023-04-10T03:55:18;23.35;;;10.20;;
78169;SDS011;67412;49.892;14.490;2023-04-10T03:57:44;24.20;;;10.15;;
78169;SDS011;67412;49.892;14.490;2023-04-10T04:00:11;24.20;;;10.77;;
78169;SDS011;67412;49.892;14.490;2023-04-10T04:02:37;23.73;;;10.93;;
78169;SDS011;67412;49.892;14.490;2023-04-10T04:05:02;24.13;;;9.75;;
78169;SDS011;67412;49.892;14.490;2023-04-10T04:07:28;22.38;;;9.95;;
78169;SDS011;67412;49.892;14.490;2023-04-10T04:09:53;22.90;;;9.45;;
78169;SDS011;67412;49.892;14.490;2023-04-10T04:12:19;23.88;;;10.20;;
78169;SDS011;67412;49.892;14.490;2023-04-10T04:14:44;26.02;;;9.93;;
78169;SDS011;67412;49.892;14.490;2023-04-10T04:17:10;24.33;;;9.63;;
78169;SDS011;67412;49.892;14.490;2023-04-10T04:19:35;24.70;;;10.05;;
78169;SDS011;67412;49.892;14.490;2023-04-10T04:22:01;29.17;;;11.73;;
78169;SDS011;67412;49.892;14.490;2023-04-10T04:24:26;23.42;;;9.68;;
78169;SDS011;67412;49.892;14.490;2023-04-10T04:26:51;29.58;;;11.10;;
78169;SDS011;67412;49.892;14.490;2023-04-10T04:29:17;23.15;;;10.32;;
78169;SDS011;67412;49.892;14.490;2023-04-10T04:31:42;23.40;;;10.27;;
78169;SDS011;67412;49.892;14.490;2023-04-10T04:34:07;25.50;;;10.43;;
78169;SDS011;67412;49.892;14.490;2023-04-10T04:36:33;23.63;;;9.52;;
78169;SDS011;67412;49.892;14.490;2023-04-10T04:38:58;24.65;;;10.23;;
78169;SDS011;67412;49.892;14.490;2023-04-10T04:41:23;26.67;;;11.13;;
78169;SDS011;67412;49.892;14.490;2023-04-10T04:43:48;29.02;;;11.88;;
78169;SDS011;67412;49.892;14.490;2023-04-10T04:46:17;27.48;;;11.20;;
78169;SDS011;67412;49.892;14.490;2023-04-10T04:48:42;27.27;;;11.23;;
78169;SDS011;67412;49.892;14.490;2023-04-10T04:51:08;28.38;;;12.20;;
78169;SDS011;67412;49.892;14.490;2023-04-10T04:53:33;24.80;;;10.88;;
78169;SDS011;67412;49.892;14.490;2023-04-10T04:55:58;29.85;;;10.85;;
78169;SDS011;67412;49.892;14.490;2023-04-10T04:58:24;27.00;;;10.65;;
78169;SDS011;67412;49.892;14.490;2023-04-10T05:00:52;27.27;;;11.15;;
78169;SDS011;67412;49.892;14.490;2023-04-10T05:03:18;24.25;;;11.30;;
78169;SDS011;67412;49.892;14.490;2023-04-10T05:05:44;25.80;;;10.95;;
78169;SDS011;67412;49.892;14.490;2023-04-10T05:08:09;27.27;;;11.52;;
78169;SDS011;67412;49.892;14.490;2023-04-10T05:10:34;26.83;;;11.15;;
78169;SDS011;67412;49.892;14.490;2023-04-10T05:13:00;26.33;;;11.27;;
78169;SDS011;67412;49.892;14.490;2023-04-10T05:15:25;30.58;;;11.82;;
78169;SDS011;67412;49.892;14.490;2023-04-10T05:17:50;26.92;;;11.30;;
78169;SDS011;67412;49.892;14.490;2023-04-10T05:20:17;24.55;;;10.93;;
78169;SDS011;67412;49.892;14.490;2023-04-10T05:22:43;26.13;;;10.38;;
78169;SDS011;67412;49.892;14.490;2023-04-10T05:25:08;24.83;;;10.55;;
78169;SDS011;67412;49.892;14.490;2023-04-10T05:27:33;27.08;;;11.00;;
78169;SDS011;67412;49.892;14.490;2023-04-10T05:29:59;26.50;;;11.43;;
78169;SDS011;67412;49.892;14.490;2023-04-10T05:32:24;26.85;;;11.82;;
78169;SDS011;67412;49.892;14.490;2023-04-10T05:34:50;29.80;;;13.02;;
78169;SDS011;67412;49.892;14.490;2023-04-10T05:37:15;30.33;;;13.02;;
78169;SDS011;67412;49.892;14.490;2023-04-10T05:39:40;33.13;;;14.20;;
78169;SDS011;67412;49.892;14.490;2023-04-10T05:42:06;32.22;;;14.02;;
78169;SDS011;67412;49.892;14.490;2023-04-10T05:44:31;28.50;;;13.30;;
78169;SDS011;67412;49.892;14.490;2023-04-10T05:46:56;29.75;;;12.05;;
78169;SDS011;67412;49.892;14.490;2023-04-10T05:49:21;37.28;;;14.57;;
78169;SDS011;67412;49.892;14.490;2023-04-10T05:51:47;34.50;;;14.00;;
78169;SDS011;67412;49.892;14.490;2023-04-10T05:56:42;31.33;;;12.50;;
78169;SDS011;67412;49.892;14.490;2023-04-10T05:59:07;32.95;;;12.55;;
78169;SDS011;67412;49.892;14.490;2023-04-10T06:01:32;28.70;;;13.40;;
78169;SDS011;67412;49.892;14.490;2023-04-10T06:03:58;30.15;;;13.15;;
78169;SDS011;67412;49.892;14.490;2023-04-10T06:06:24;29.85;;;13.40;;
78169;SDS011;67412;49.892;14.490;2023-04-10T06:08:50;29.23;;;12.15;;
78169;SDS011;67412;49.892;14.490;2023-04-10T06:11:16;30.77;;;13.45;;
78169;SDS011;67412;49.892;14.490;2023-04-10T06:13:41;32.00;;;13.32;;
78169;SDS011;67412;49.892;14.490;2023-04-10T06:16:07;30.63;;;13.07;;
78169;SDS011;67412;49.892;14.490;2023-04-10T06:18:32;28.85;;;12.98;;
78169;SDS011;67412;49.892;14.490;2023-04-10T06:20:58;33.33;;;13.80;;
78169;SDS011;67412;49.892;14.490;2023-04-10T06:23:26;29.33;;;13.27;;
78169;SDS011;67412;49.892;14.490;2023-04-10T06:25:52;31.60;;;14.13;;
78169;SDS011;67412;49.892;14.490;2023-04-10T06:28:18;30.92;;;13.80;;
78169;SDS011;67412;49.892;14.490;2023-04-10T06:30:43;29.27;;;13.50;;
78169;SDS011;67412;49.892;14.490;2023-04-10T06:33:08;35.55;;;15.77;;
78169;SDS011;67412;49.892;14.490;2023-04-10T06:35:34;33.28;;;14.95;;
78169;SDS011;67412;49.892;14.490;2023-04-10T06:38:00;37.90;;;14.93;;
78169;SDS011;67412;49.892;14.490;2023-04-10T06:40:25;36.95;;;15.85;;
78169;SDS011;67412;49.892;14.490;2023-04-10T06:42:53;32.90;;;14.32;;
78169;SDS011;67412;49.892;14.490;2023-04-10T06:45:18;30.80;;;13.98;;
78169;SDS011;67412;49.892;14.490;2023-04-10T06:47:44;34.15;;;15.93;;
78169;SDS011;67412;49.892;14.490;2023-04-10T06:50:10;34.25;;;15.82;;
78169;SDS011;67412;49.892;14.490;2023-04-10T06:52:35;38.92;;;18.30;;
78169;SDS011;67412;49.892;14.490;2023-04-10T06:55:00;37.97;;;18.00;;
78169;SDS011;67412;49.892;14.490;2023-04-10T06:57:26;35.65;;;16.65;;
78169;SDS011;67412;49.892;14.490;2023-04-10T06:59:52;38.80;;;17.27;;
78169;SDS011;67412;49.892;14.490;2023-04-10T07:02:18;37.25;;;17.05;;
78169;SDS011;67412;49.892;14.490;2023-04-10T07:04:43;34.08;;;15.02;;
78169;SDS011;67412;49.892;14.490;2023-04-10T07:07:08;35.47;;;15.98;;
78169;SDS011;67412;49.892;14.490;2023-04-10T07:09:36;38.42;;;15.85;;
78169;SDS011;67412;49.892;14.490;2023-04-10T07:12:02;33.85;;;15.27;;
78169;SDS011;67412;49.892;14.490;2023-04-10T07:14:27;32.00;;;14.88;;
78169;SDS011;67412;49.892;14.490;2023-04-10T07:16:52;31.15;;;14.93;;
78169;SDS011;67412;49.892;14.490;2023-04-10T07:19:18;34.67;;;13.75;;
78169;SDS011;67412;49.892;14.490;2023-04-10T07:21:44;29.33;;;12.40;;
78169;SDS011;67412;49.892;14.490;2023-04-10T07:24:14;27.73;;;12.00;;
78169;SDS011;67412;49.892;14.490;2023-04-10T07:26:40;28.42;;;13.73;;
78169;SDS011;67412;49.892;14.490;2023-04-10T07:29:05;29.70;;;14.68;;
78169;SDS011;67412;49.892;14.490;2023-04-10T07:31:30;25.52;;;12.50;;
78169;SDS011;67412;49.892;14.490;2023-04-10T07:33:56;29.25;;;12.73;;
78169;SDS011;67412;49.892;14.490;2023-04-10T07:36:21;29.40;;;12.55;;
78169;SDS011;67412;49.892;14.490;2023-04-10T07:38:46;29.00;;;12.77;;
78169;SDS011;67412;49.892;14.490;2023-04-10T07:41:12;30.90;;;13.63;;
78169;SDS011;67412;49.892;14.490;2023-04-10T07:43:38;25.27;;;11.02;;
78169;SDS011;67412;49.892;14.490;2023-04-10T07:46:03;22.58;;;9.48;;
78169;SDS011;67412;49.892;14.490;2023-04-10T07:48:29;23.05;;;10.63;;
78169;SDS011;67412;49.892;14.490;2023-04-10T07:50:54;23.50;;;10.07;;
78169;SDS011;67412;49.892;14.490;2023-04-10T07:53:20;22.60;;;9.82;;
78169;SDS011;67412;49.892;14.490;2023-04-10T07:55:45;20.48;;;8.85;;
78169;SDS011;67412;49.892;14.490;2023-04-10T07:58:14;22.17;;;10.23;;
78169;SDS011;67412;49.892;14.490;2023-04-10T08:00:40;21.92;;;9.82;;
78169;SDS011;67412;49.892;14.490;2023-04-10T08:03:06;20.95;;;9.90;;
78169;SDS011;67412;49.892;14.490;2023-04-10T08:05:31;16.67;;;7.50;;
78169;SDS011;67412;49.892;14.490;2023-04-10T08:07:57;15.90;;;6.93;;
78169;SDS011;67412;49.892;14.490;2023-04-10T08:10:23;15.93;;;7.07;;
78169;SDS011;67412;49.892;14.490;2023-04-10T08:12:48;14.02;;;7.05;;
78169;SDS011;67412;49.892;14.490;2023-04-10T08:15:14;11.20;;;4.82;;
78169;SDS011;67412;49.892;14.490;2023-04-10T08:17:40;11.32;;;5.10;;
78169;SDS011;67412;49.892;14.490;2023-04-10T08:20:06;13.40;;;5.03;;
78169;SDS011;67412;49.892;14.490;2023-04-10T08:22:32;13.65;;;5.15;;
78169;SDS011;67412;49.892;14.490;2023-04-10T08:24:57;14.32;;;5.80;;
78169;SDS011;67412;49.892;14.490;2023-04-10T08:27:22;16.88;;;6.90;;
78169;SDS011;67412;49.892;14.490;2023-04-10T08:29:48;17.10;;;8.10;;
78169;SDS011;67412;49.892;14.490;2023-04-10T08:32:13;16.40;;;6.75;;
78169;SDS011;67412;49.892;14.490;2023-04-10T08:34:38;16.88;;;7.40;;
78169;SDS011;67412;49.892;14.490;2023-04-10T08:37:07;16.00;;;7.00;;
78169;SDS011;67412;49.892;14.490;2023-04-10T08:39:37;16.08;;;7.15;;
78169;SDS011;67412;49.892;14.490;2023-04-10T08:42:03;16.15;;;7.15;;
78169;SDS011;67412;49.892;14.490;2023-04-10T08:46:57;15.38;;;6.32;;
78169;SDS011;67412;49.892;14.490;2023-04-10T08:49:28;15.75;;;6.88;;
78169;SDS011;67412;49.892;14.490;2023-04-10T08:52:03;16.08;;;6.95;;
78169;SDS011;67412;49.892;14.490;2023-04-10T08:54:32;14.75;;;6.10;;
78169;SDS011;67412;49.892;14.490;2023-04-10T08:56:59;16.20;;;6.28;;
78169;SDS011;67412;49.892;14.490;2023-04-10T08:59:28;15.15;;;6.60;;
78169;SDS011;67412;49.892;14.490;2023-04-10T09:01:54;17.05;;;6.88;;
78169;SDS011;67412;49.892;14.490;2023-04-10T09:04:21;16.25;;;7.50;;
78169;SDS011;67412;49.892;14.490;2023-04-10T09:06:53;14.20;;;6.18;;
78169;SDS011;67412;49.892;14.490;2023-04-10T09:09:19;15.77;;;6.40;;
78169;SDS011;67412;49.892;14.490;2023-04-10T09:14:23;13.82;;;6.07;;
78169;SDS011;67412;49.892;14.490;2023-04-10T09:16:49;14.95;;;6.40;;
78169;SDS011;67412;49.892;14.490;2023-04-10T09:19:28;13.02;;;5.75;;
78169;SDS011;67412;49.892;14.490;2023-04-10T09:21:54;12.23;;;6.07;;
78169;SDS011;67412;49.892;14.490;2023-04-10T09:24:20;11.63;;;4.95;;
78169;SDS011;67412;49.892;14.490;2023-04-10T09:29:12;14.23;;;5.70;;
78169;SDS011;67412;49.892;14.490;2023-04-10T09:31:38;15.20;;;6.28;;
78169;SDS011;67412;49.892;14.490;2023-04-10T09:36:35;11.68;;;4.75;;
78169;SDS011;67412;49.892;14.490;2023-04-10T09:39:05;14.00;;;6.25;;
78169;SDS011;67412;49.892;14.490;2023-04-10T09:41:30;13.88;;;6.22;;
78169;SDS011;67412;49.892;14.490;2023-04-10T09:46:32;12.45;;;6.05;;
78169;SDS011;67412;49.892;14.490;2023-04-10T09:48:58;12.10;;;5.28;;
78169;SDS011;67412;49.892;14.490;2023-04-10T09:51:32;13.02;;;4.93;;
78169;SDS011;67412;49.892;14.490;2023-04-10T09:53:59;14.23;;;5.70;;
78169;SDS011;67412;49.892;14.490;2023-04-10T09:56:26;13.27;;;6.00;;
78169;SDS011;67412;49.892;14.490;2023-04-10T09:58:52;15.30;;;6.10;;
78169;SDS011;67412;49.892;14.490;2023-04-10T10:01:22;13.75;;;5.70;;
78169;SDS011;67412;49.892;14.490;2023-04-10T10:03:49;13.45;;;6.07;;
78169;SDS011;67412;49.892;14.490;2023-04-10T10:06:15;13.50;;;5.05;;
78169;SDS011;67412;49.892;14.490;2023-04-10T10:08:41;12.07;;;5.20;;
78169;SDS011;67412;49.892;14.490;2023-04-10T10:11:08;11.55;;;5.13;;
78169;SDS011;67412;49.892;14.490;2023-04-10T10:13:37;10.85;;;4.78;;
78169;SDS011;67412;49.892;14.490;2023-04-10T10:16:20;12.10;;;4.88;;
78169;SDS011;67412;49.892;14.490;2023-04-10T10:21:16;14.50;;;5.35;;
78169;SDS011;67412;49.892;14.490;2023-04-10T10:23:43;12.07;;;5.32;;
78169;SDS011;67412;49.892;14.490;2023-04-10T10:26:10;10.55;;;5.00;;
78169;SDS011;67412;49.892;14.490;2023-04-10T10:28:36;11.77;;;5.20;;
78169;SDS011;67412;49.892;14.490;2023-04-10T10:31:02;12.20;;;5.68;;
78169;SDS011;67412;49.892;14.490;2023-04-10T10:33:28;11.63;;;4.68;;
78169;SDS011;67412;49.892;14.490;2023-04-10T10:38:22;11.80;;;4.78;;
78169;SDS011;67412;49.892;14.490;2023-04-10T10:46:02;10.25;;;4.55;;
78169;SDS011;67412;49.892;14.490;2023-04-10T10:48:33;12.02;;;5.22;;
78169;SDS011;67412;49.892;14.490;2023-04-10T10:50:58;11.75;;;4.95;;
78169;SDS011;67412;49.892;14.490;2023-04-10T10:53:30;10.13;;;4.57;;
78169;SDS011;67412;49.892;14.490;2023-04-10T10:55:55;11.63;;;4.63;;
78169;SDS011;67412;49.892;14.490;2023-04-10T10:58:20;12.52;;;5.25;;
78169;SDS011;67412;49.892;14.490;2023-04-10T11:01:12;10.35;;;4.30;;
78169;SDS011;67412;49.892;14.490;2023-04-10T11:03:38;10.93;;;4.93;;
78169;SDS011;67412;49.892;14.490;2023-04-10T11:06:05;10.23;;;4.60;;
78169;SDS011;67412;49.892;14.490;2023-04-10T11:08:46;10.90;;;4.60;;
78169;SDS011;67412;49.892;14.490;2023-04-10T11:16:14;10.63;;;4.80;;
78169;SDS011;67412;49.892;14.490;2023-04-10T11:21:09;11.05;;;5.00;;
78169;SDS011;67412;49.892;14.490;2023-04-10T11:24:00;11.23;;;5.38;;
78169;SDS011;67412;49.892;14.490;2023-04-10T11:29:51;12.80;;;5.05;;
78169;SDS011;67412;49.892;14.490;2023-04-10T11:31:55;10.80;;;4.53;;
78169;SDS011;67412;49.892;14.490;2023-04-10T11:34:22;10.50;;;4.43;;
78169;SDS011;67412;49.892;14.490;2023-04-10T11:36:48;10.93;;;4.32;;
78169;SDS011;67412;49.892;14.490;2023-04-10T11:39:14;10.52;;;4.68;;
78169;SDS011;67412;49.892;14.490;2023-04-10T11:41:43;9.55;;;4.30;;
78169;SDS011;67412;49.892;14.490;2023-04-10T11:44:13;10.27;;;4.15;;
78169;SDS011;67412;49.892;14.490;2023-04-10T11:46:41;9.35;;;4.53;;
78169;SDS011;67412;49.892;14.490;2023-04-10T11:49:09;10.45;;;4.22;;
78169;SDS011;67412;49.892;14.490;2023-04-10T11:51:35;10.38;;;4.32;;
78169;SDS011;67412;49.892;14.490;2023-04-10T11:56:31;10.98;;;3.92;;
78169;SDS011;67412;49.892;14.490;2023-04-10T11:58:56;9.88;;;4.60;;
78169;SDS011;67412;49.892;14.490;2023-04-10T12:01:22;9.18;;;4.05;;
78169;SDS011;67412;49.892;14.490;2023-04-10T12:03:48;9.90;;;4.40;;
78169;SDS011;67412;49.892;14.490;2023-04-10T12:06:13;10.85;;;4.85;;
78169;SDS011;67412;49.892;14.490;2023-04-10T12:08:40;12.98;;;4.75;;
78169;SDS011;67412;49.892;14.490;2023-04-10T12:11:24;9.10;;;4.00;;
78169;SDS011;67412;49.892;14.490;2023-04-10T12:13:51;9.38;;;4.43;;
78169;SDS011;67412;49.892;14.490;2023-04-10T12:16:17;9.43;;;3.88;;
78169;SDS011;67412;49.892;14.490;2023-04-10T12:18:43;10.15;;;4.10;;
78169;SDS011;67412;49.892;14.490;2023-04-10T12:21:11;9.70;;;4.18;;
78169;SDS011;67412;49.892;14.490;2023-04-10T12:23:37;8.43;;;4.05;;
78169;SDS011;67412;49.892;14.490;2023-04-10T12:28:34;10.77;;;4.30;;
78169;SDS011;67412;49.892;14.490;2023-04-10T12:31:01;9.45;;;4.22;;
78169;SDS011;67412;49.892;14.490;2023-04-10T12:33:27;10.07;;;4.85;;
78169;SDS011;67412;49.892;14.490;2023-04-10T12:35:53;8.85;;;4.05;;
78169;SDS011;67412;49.892;14.490;2023-04-10T12:38:37;11.80;;;4.47;;
78169;SDS011;67412;49.892;14.490;2023-04-10T12:41:07;9.27;;;4.45;;
78169;SDS011;67412;49.892;14.490;2023-04-10T12:43:40;9.70;;;4.10;;
78169;SDS011;67412;49.892;14.490;2023-04-10T12:46:09;10.07;;;4.10;;
78169;SDS011;67412;49.892;14.490;2023-04-10T12:48:47;8.38;;;3.95;;
78169;SDS011;67412;49.892;14.490;2023-04-10T12:51:13;10.95;;;4.40;;
78169;SDS011;67412;49.892;14.490;2023-04-10T12:53:41;8.77;;;3.80;;
78169;SDS011;67412;49.892;14.490;2023-04-10T12:56:07;8.60;;;3.97;;
78169;SDS011;67412;49.892;14.490;2023-04-10T12:58:33;8.60;;;3.75;;
78169;SDS011;67412;49.892;14.490;2023-04-10T13:01:02;8.38;;;3.28;;
78169;SDS011;67412;49.892;14.490;2023-04-10T13:03:29;8.95;;;3.58;;
78169;SDS011;67412;49.892;14.490;2023-04-10T13:05:57;8.90;;;3.63;;
78169;SDS011;67412;49.892;14.490;2023-04-10T13:08:23;8.27;;;3.83;;
78169;SDS011;67412;49.892;14.490;2023-04-10T13:10:48;8.35;;;3.40;;
78169;SDS011;67412;49.892;14.490;2023-04-10T13:13:14;8.95;;;3.47;;
78169;SDS011;67412;49.892;14.490;2023-04-10T13:15:40;7.43;;;3.33;;
78169;SDS011;67412;49.892;14.490;2023-04-10T13:18:05;8.65;;;3.58;;
78169;SDS011;67412;49.892;14.490;2023-04-10T13:20:34;7.40;;;3.28;;
78169;SDS011;67412;49.892;14.490;2023-04-10T13:23:00;9.38;;;4.00;;
78169;SDS011;67412;49.892;14.490;2023-04-10T13:25:27;9.63;;;3.85;;
78169;SDS011;67412;49.892;14.490;2023-04-10T13:27:56;10.00;;;4.13;;
78169;SDS011;67412;49.892;14.490;2023-04-10T13:30:21;8.80;;;3.63;;
78169;SDS011;67412;49.892;14.490;2023-04-10T13:32:47;8.60;;;3.55;;
78169;SDS011;67412;49.892;14.490;2023-04-10T13:35:12;9.13;;;3.60;;
78169;SDS011;67412;49.892;14.490;2023-04-10T13:37:37;7.78;;;3.45;;
78169;SDS011;67412;49.892;14.490;2023-04-10T13:40:03;8.50;;;3.67;;
78169;SDS011;67412;49.892;14.490;2023-04-10T13:42:29;8.40;;;3.60;;
78169;SDS011;67412;49.892;14.490;2023-04-10T13:44:55;8.45;;;3.53;;
78169;SDS011;67412;49.892;14.490;2023-04-10T13:47:20;10.10;;;3.33;;
78169;SDS011;67412;49.892;14.490;2023-04-10T13:49:45;8.18;;;3.28;;
78169;SDS011;67412;49.892;14.490;2023-04-10T13:52:11;8.43;;;3.60;;
78169;SDS011;67412;49.892;14.490;2023-04-10T13:54:36;7.95;;;3.65;;
78169;SDS011;67412;49.892;14.490;2023-04-10T13:57:01;8.18;;;3.45;;
78169;SDS011;67412;49.892;14.490;2023-04-10T13:59:27;8.50;;;3.60;;
78169;SDS011;67412;49.892;14.490;2023-04-10T14:01:52;8.20;;;3.40;;
78169;SDS011;67412;49.892;14.490;2023-04-10T14:04:18;7.38;;;3.20;;
78169;SDS011;67412;49.892;14.490;2023-04-10T14:06:43;8.23;;;3.58;;
78169;SDS011;67412;49.892;14.490;2023-04-10T14:09:08;8.55;;;3.72;;
78169;SDS011;67412;49.892;14.490;2023-04-10T14:11:34;8.65;;;3.65;;
78169;SDS011;67412;49.892;14.490;2023-04-10T14:13:59;8.75;;;3.95;;
78169;SDS011;67412;49.892;14.490;2023-04-10T14:16:25;9.07;;;3.53;;
78169;SDS011;67412;49.892;14.490;2023-04-10T14:18:50;8.70;;;3.55;;
78169;SDS011;67412;49.892;14.490;2023-04-10T14:21:15;9.15;;;3.90;;
78169;SDS011;67412;49.892;14.490;2023-04-10T14:23:41;8.45;;;3.95;;
78169;SDS011;67412;49.892;14.490;2023-04-10T14:26:07;9.05;;;3.75;;
78169;SDS011;67412;49.892;14.490;2023-04-10T14:28:32;7.90;;;3.25;;
78169;SDS011;67412;49.892;14.490;2023-04-10T14:30:58;8.35;;;3.80;;
78169;SDS011;67412;49.892;14.490;2023-04-10T14:33:23;9.13;;;3.42;;
78169;SDS011;67412;49.892;14.490;2023-04-10T14:35:48;7.95;;;3.33;;
78169;SDS011;67412;49.892;14.490;2023-04-10T14:38:14;7.90;;;3.70;;
78169;SDS011;67412;49.892;14.490;2023-04-10T14:40:39;9.60;;;3.58;;
78169;SDS011;67412;49.892;14.490;2023-04-10T14:43:06;7.55;;;3.60;;
78169;SDS011;67412;49.892;14.490;2023-04-10T14:45:32;8.30;;;3.90;;
78169;SDS011;67412;49.892;14.490;2023-04-10T14:47:57;9.55;;;3.70;;
78169;SDS011;67412;49.892;14.490;2023-04-10T14:50:23;7.85;;;3.85;;
78169;SDS011;67412;49.892;14.490;2023-04-10T14:52:49;8.00;;;3.20;;
78169;SDS011;67412;49.892;14.490;2023-04-10T14:55:15;9.20;;;3.75;;
78169;SDS011;67412;49.892;14.490;2023-04-10T14:57:40;8.48;;;3.67;;
78169;SDS011;67412;49.892;14.490;2023-04-10T15:00:06;8.73;;;3.33;;
78169;SDS011;67412;49.892;14.490;2023-04-10T15:02:31;8.35;;;3.85;;
78169;SDS011;67412;49.892;14.490;2023-04-10T15:04:57;7.97;;;3.55;;
78169;SDS011;67412;49.892;14.490;2023-04-10T15:07:22;9.75;;;3.70;;
78169;SDS011;67412;49.892;14.490;2023-04-10T15:09:54;8.40;;;3.50;;
78169;SDS011;67412;49.892;14.490;2023-04-10T15:12:21;7.80;;;3.15;;